sensor_id;sensor_type;location;lat;lon;timestamp;pressure;altitude;pressure_sealevel;temperature;humidity
23223;BME280;11780;13.904;100.620;2023-04-06T02:37:40;101036.34;;;32.39;68.83
23223;BME280;11780;13.904;100.620;2023-04-06T02:40:11;101030.44;;;32.49;68.09
23223;BME280;11780;13.904;100.620;2023-04-06T02:42:42;101017.91;;;32.61;67.53
23223;BME280;11780;13.904;100.620;2023-04-06T02:45:14;101015.13;;;32.70;66.71
23223;BME280;11780;13.904;100.620;2023-04-06T02:47:47;101013.66;;;32.63;66.85
23223;BME280;11780;13.904;100.620;2023-04-06T02:50:17;101018.38;;;32.63;67.07
23223;BME280;11780;13.904;100.620;2023-04-06T02:52:55;101019.19;;;32.63;67.23
23223;BME280;11780;13.904;100.620;2023-04-06T02:55:26;101017.72;;;32.66;66.64
23223;BME280;11780;13.904;100.620;2023-04-06T02:57:56;101013.81;;;32.67;66.79
23223;BME280;11780;13.904;100.620;2023-04-06T03:00:34;101014.44;;;32.73;66.71
23223;BME280;11780;13.904;100.620;2023-04-06T03:03:05;101014.13;;;32.74;66.50
23223;BME280;11780;13.904;100.620;2023-04-06T03:05:37;101008.72;;;32.78;66.10
23223;BME280;11780;13.904;100.620;2023-04-06T03:08:08;101012.28;;;32.78;66.37
23223;BME280;11780;13.904;100.620;2023-04-06T03:10:44;101009.53;;;32.78;67.55
23223;BME280;11780;13.904;100.620;2023-04-06T03:13:16;100997.03;;;32.81;65.46
23223;BME280;11780;13.904;100.620;2023-04-06T03:15:53;100997.50;;;32.83;65.42
23223;BME280;11780;13.904;100.620;2023-04-06T03:18:24;101003.84;;;32.84;65.19
23223;BME280;11780;13.904;100.620;2023-04-06T03:20:56;100999.28;;;32.88;64.53
23223;BME280;11780;13.904;100.620;2023-04-06T03:23:45;100994.41;;;32.85;64.08
23223;BME280;11780;13.904;100.620;2023-04-06T03:26:15;100992.59;;;32.89;63.91
23223;BME280;11780;13.904;100.620;2023-04-06T03:28:46;100991.75;;;32.88;63.84
23223;BME280;11780;13.904;100.620;2023-04-06T03:31:19;100996.50;;;32.88;64.16
23223;BME280;11780;13.904;100.620;2023-04-06T03:33:57;100989.34;;;32.87;63.33
23223;BME280;11780;13.904;100.620;2023-04-06T03:36:35;100987.38;;;32.87;63.44
23223;BME280;11780;13.904;100.620;2023-04-06T03:39:05;100979.53;;;32.89;63.48
23223;BME280;11780;13.904;100.620;2023-04-06T03:41:39;100985.25;;;32.93;64.28
23223;BME280;11780;13.904;100.620;2023-04-06T03:44:28;100981.31;;;32.94;63.80
23223;BME280;11780;13.904;100.620;2023-04-06T03:46:58;100977.75;;;32.93;63.73
23223;BME280;11780;13.904;100.620;2023-04-06T03:49:29;100970.22;;;32.94;63.21
23223;BME280;11780;13.904;100.620;2023-04-06T03:52:01;100970.22;;;32.94;63.19
23223;BME280;11780;13.904;100.620;2023-04-06T03:54:31;100966.00;;;32.97;62.13
23223;BME280;11780;13.904;100.620;2023-04-06T03:57:02;100964.38;;;32.95;62.67
23223;BME280;11780;13.904;100.620;2023-04-06T03:59:32;100970.38;;;32.98;62.40
23223;BME280;11780;13.904;100.620;2023-04-06T04:02:04;100959.78;;;33.00;62.48
23223;BME280;11780;13.904;100.620;2023-04-06T04:04:35;100958.66;;;33.01;62.47
23223;BME280;11780;13.904;100.620;2023-04-06T04:07:05;100957.03;;;33.00;62.63
23223;BME280;11780;13.904;100.620;2023-04-06T04:09:36;100947.22;;;33.02;62.62
23223;BME280;11780;13.904;100.620;2023-04-06T04:12:07;100948.53;;;32.96;63.13
23223;BME280;11780;13.904;100.620;2023-04-06T04:14:37;100948.34;;;33.01;61.77
23223;BME280;11780;13.904;100.620;2023-04-06T04:17:08;100948.72;;;33.00;62.16
23223;BME280;11780;13.904;100.620;2023-04-06T04:19:38;100942.28;;;33.08;61.74
23223;BME280;11780;13.904;100.620;2023-04-06T04:22:09;100941.28;;;33.13;61.84
23223;BME280;11780;13.904;100.620;2023-04-06T04:24:41;100931.16;;;33.17;61.18
23223;BME280;11780;13.904;100.620;2023-04-06T04:27:11;100935.31;;;33.32;60.68
23223;BME280;11780;13.904;100.620;2023-04-06T04:29:41;100935.25;;;33.40;60.42
23223;BME280;11780;13.904;100.620;2023-04-06T04:32:13;100927.16;;;33.35;60.30
23223;BME280;11780;13.904;100.620;2023-04-06T04:34:45;100927.41;;;33.43;60.00
23223;BME280;11780;13.904;100.620;2023-04-06T04:37:30;100921.28;;;33.58;59.54
23223;BME280;11780;13.904;100.620;2023-04-06T04:40:00;100932.38;;;33.58;58.94
23223;BME280;11780;13.904;100.620;2023-04-06T04:42:40;100911.00;;;33.59;58.70
23223;BME280;11780;13.904;100.620;2023-04-06T04:45:17;100909.78;;;33.68;58.21
23223;BME280;11780;13.904;100.620;2023-04-06T04:47:49;100912.81;;;33.76;57.42
23223;BME280;11780;13.904;100.620;2023-04-06T04:50:22;100903.44;;;33.80;57.73
23223;BME280;11780;13.904;100.620;2023-04-06T04:52:56;100899.88;;;33.80;57.69
23223;BME280;11780;13.904;100.620;2023-04-06T04:55:27;100897.31;;;33.75;57.99
23223;BME280;11780;13.904;100.620;2023-04-06T04:58:00;100896.75;;;33.81;57.85
23223;BME280;11780;13.904;100.620;2023-04-06T05:00:44;100901.75;;;33.88;57.54
23223;BME280;11780;13.904;100.620;2023-04-06T05:03:20;100892.00;;;34.03;56.60
23223;BME280;11780;13.904;100.620;2023-04-06T05:06:02;100879.56;;;34.09;56.05
23223;BME280;11780;13.904;100.620;2023-04-06T05:08:35;100875.97;;;34.21;55.51
23223;BME280;11780;13.904;100.620;2023-04-06T05:11:06;100877.56;;;34.10;55.75
23223;BME280;11780;13.904;100.620;2023-04-06T05:13:41;100873.25;;;34.00;56.73
23223;BME280;11780;13.904;100.620;2023-04-06T05:16:16;100881.84;;;34.07;56.90
23223;BME280;11780;13.904;100.620;2023-04-06T05:18:47;100877.22;;;34.11;56.60
23223;BME280;11780;13.904;100.620;2023-04-06T05:21:19;100874.91;;;34.13;56.39
23223;BME280;11780;13.904;100.620;2023-04-06T05:24:05;100856.53;;;34.09;56.16
23223;BME280;11780;13.904;100.620;2023-04-06T05:26:41;100848.44;;;34.16;55.72
23223;BME280;11780;13.904;100.620;2023-04-06T05:29:19;100844.97;;;34.19;55.68
23223;BME280;11780;13.904;100.620;2023-04-06T05:31:51;100837.00;;;34.18;55.90
23223;BME280;11780;13.904;100.620;2023-04-06T05:34:21;100834.78;;;34.11;55.49
23223;BME280;11780;13.904;100.620;2023-04-06T05:36:53;100835.47;;;34.08;55.87
23223;BME280;11780;13.904;100.620;2023-04-06T05:39:25;100823.91;;;34.06;56.00
23223;BME280;11780;13.904;100.620;2023-04-06T05:41:56;100822.31;;;34.29;55.11
23223;BME280;11780;13.904;100.620;2023-04-06T05:44:46;100809.59;;;34.28;54.70
23223;BME280;11780;13.904;100.620;2023-04-06T05:47:17;100807.88;;;34.24;55.26
23223;BME280;11780;13.904;100.620;2023-04-06T05:49:55;100805.41;;;34.22;55.71
23223;BME280;11780;13.904;100.620;2023-04-06T05:52:35;100798.72;;;34.36;54.63
23223;BME280;11780;13.904;100.620;2023-04-06T05:55:05;100786.66;;;34.19;55.29
23223;BME280;11780;13.904;100.620;2023-04-06T05:57:39;100790.38;;;34.23;55.05
23223;BME280;11780;13.904;100.620;2023-04-06T06:00:12;100779.63;;;34.34;54.57
23223;BME280;11780;13.904;100.620;2023-04-06T06:02:52;100782.75;;;34.33;54.39
23223;BME280;11780;13.904;100.620;2023-04-06T06:05:28;100781.94;;;34.32;54.12
23223;BME280;11780;13.904;100.620;2023-04-06T06:08:06;100772.09;;;34.35;53.55
23223;BME280;11780;13.904;100.620;2023-04-06T06:10:38;100764.50;;;34.44;52.57
23223;BME280;11780;13.904;100.620;2023-04-06T06:13:11;100746.78;;;34.49;52.95
23223;BME280;11780;13.904;100.620;2023-04-06T06:15:42;100751.88;;;34.46;53.01
23223;BME280;11780;13.904;100.620;2023-04-06T06:18:13;100742.94;;;34.41;53.67
23223;BME280;11780;13.904;100.620;2023-04-06T06:20:43;100743.81;;;34.82;53.58
23223;BME280;11780;13.904;100.620;2023-04-06T06:23:15;100739.19;;;34.86;54.24
23223;BME280;11780;13.904;100.620;2023-04-06T06:25:46;100734.31;;;34.83;54.08
23223;BME280;11780;13.904;100.620;2023-04-06T06:28:16;100723.66;;;34.85;54.00
23223;BME280;11780;13.904;100.620;2023-04-06T06:30:47;100725.19;;;34.83;54.31
23223;BME280;11780;13.904;100.620;2023-04-06T06:33:21;100709.59;;;34.78;53.97
23223;BME280;11780;13.904;100.620;2023-04-06T06:35:54;100719.06;;;34.77;54.40
23223;BME280;11780;13.904;100.620;2023-04-06T06:38:24;100702.53;;;34.68;53.98
23223;BME280;11780;13.904;100.620;2023-04-06T06:40:55;100693.59;;;34.75;54.15
23223;BME280;11780;13.904;100.620;2023-04-06T06:43:29;100691.28;;;34.77;54.33
23223;BME280;11780;13.904;100.620;2023-04-06T06:46:06;100684.03;;;34.72;54.36
23223;BME280;11780;13.904;100.620;2023-04-06T06:48:36;100687.81;;;34.80;54.40
23223;BME280;11780;13.904;100.620;2023-04-06T06:51:07;100683.66;;;34.74;54.16
23223;BME280;11780;13.904;100.620;2023-04-06T06:53:40;100675.09;;;34.67;54.23
23223;BME280;11780;13.904;100.620;2023-04-06T06:56:13;100672.94;;;34.60;53.94
23223;BME280;11780;13.904;100.620;2023-04-06T06:58:44;100668.75;;;35.23;51.84
23223;BME280;11780;13.904;100.620;2023-04-06T07:01:15;100665.53;;;34.92;52.69
23223;BME280;11780;13.904;100.620;2023-04-06T07:03:45;100648.34;;;34.74;52.70
23223;BME280;11780;13.904;100.620;2023-04-06T07:06:16;100642.69;;;34.71;52.34
23223;BME280;11780;13.904;100.620;2023-04-06T07:08:46;100644.75;;;34.74;52.68
23223;BME280;11780;13.904;100.620;2023-04-06T07:11:16;100640.06;;;34.62;52.83
23223;BME280;11780;13.904;100.620;2023-04-06T07:13:47;100644.22;;;34.68;53.34
23223;BME280;11780;13.904;100.620;2023-04-06T07:16:17;100635.06;;;34.68;53.16
23223;BME280;11780;13.904;100.620;2023-04-06T07:18:48;100628.78;;;34.71;53.24
23223;BME280;11780;13.904;100.620;2023-04-06T07:21:18;100622.13;;;34.88;52.68
23223;BME280;11780;13.904;100.620;2023-04-06T07:23:50;100621.56;;;34.82;53.20
23223;BME280;11780;13.904;100.620;2023-04-06T07:26:20;100612.88;;;34.84;53.89
23223;BME280;11780;13.904;100.620;2023-04-06T07:28:51;100609.94;;;34.92;53.57
23223;BME280;11780;13.904;100.620;2023-04-06T07:31:23;100605.25;;;35.09;53.33
23223;BME280;11780;13.904;100.620;2023-04-06T07:33:53;100609.66;;;35.10;53.20
23223;BME280;11780;13.904;100.620;2023-04-06T07:36:24;100594.31;;;35.00;53.32
23223;BME280;11780;13.904;100.620;2023-04-06T07:38:55;100590.50;;;34.92;53.49
23223;BME280;11780;13.904;100.620;2023-04-06T07:41:25;100595.81;;;34.98;53.49
23223;BME280;11780;13.904;100.620;2023-04-06T07:43:55;100595.75;;;35.10;53.17
23223;BME280;11780;13.904;100.620;2023-04-06T07:46:26;100590.47;;;35.37;52.53
23223;BME280;11780;13.904;100.620;2023-04-06T07:48:57;100577.28;;;35.18;52.42
23223;BME280;11780;13.904;100.620;2023-04-06T07:51:30;100580.25;;;35.09;52.97
23223;BME280;11780;13.904;100.620;2023-04-06T07:54:01;100572.34;;;35.11;53.11
23223;BME280;11780;13.904;100.620;2023-04-06T07:56:32;100577.19;;;35.14;53.08
23223;BME280;11780;13.904;100.620;2023-04-06T07:59:02;100568.91;;;35.02;53.04
23223;BME280;11780;13.904;100.620;2023-04-06T08:01:33;100563.38;;;35.02;52.89
23223;BME280;11780;13.904;100.620;2023-04-06T08:04:03;100561.22;;;34.95;52.72
23223;BME280;11780;13.904;100.620;2023-04-06T08:06:34;100557.47;;;35.19;52.08
23223;BME280;11780;13.904;100.620;2023-04-06T08:09:06;100557.56;;;35.07;52.13
23223;BME280;11780;13.904;100.620;2023-04-06T08:11:36;100546.16;;;35.12;51.85
23223;BME280;11780;13.904;100.620;2023-04-06T08:14:08;100547.06;;;35.16;51.77
23223;BME280;11780;13.904;100.620;2023-04-06T08:16:38;100548.75;;;35.05;51.96
23223;BME280;11780;13.904;100.620;2023-04-06T08:19:12;100533.78;;;35.10;51.87
23223;BME280;11780;13.904;100.620;2023-04-06T08:21:43;100529.75;;;35.23;51.45
23223;BME280;11780;13.904;100.620;2023-04-06T08:24:14;100527.41;;;35.25;51.20
23223;BME280;11780;13.904;100.620;2023-04-06T08:26:45;100522.34;;;35.63;50.14
23223;BME280;11780;13.904;100.620;2023-04-06T08:29:16;100524.63;;;35.41;50.72
23223;BME280;11780;13.904;100.620;2023-04-06T08:31:47;100515.50;;;35.25;51.16
23223;BME280;11780;13.904;100.620;2023-04-06T08:34:17;100518.72;;;35.27;51.06
23223;BME280;11780;13.904;100.620;2023-04-06T08:36:48;100509.41;;;35.19;50.88
23223;BME280;11780;13.904;100.620;2023-04-06T08:39:21;100516.03;;;35.14;50.84
23223;BME280;11780;13.904;100.620;2023-04-06T08:41:55;100511.19;;;35.11;51.33
23223;BME280;11780;13.904;100.620;2023-04-06T08:44:32;100509.59;;;35.10;51.29
23223;BME280;11780;13.904;100.620;2023-04-06T08:47:04;100505.53;;;35.24;50.83
23223;BME280;11780;13.904;100.620;2023-04-06T08:49:37;100506.84;;;35.30;50.19
23223;BME280;11780;13.904;100.620;2023-04-06T08:52:10;100498.81;;;35.25;50.52
23223;BME280;11780;13.904;100.620;2023-04-06T08:54:41;100497.09;;;35.20;51.03
23223;BME280;11780;13.904;100.620;2023-04-06T08:57:13;100501.13;;;35.22;50.79
23223;BME280;11780;13.904;100.620;2023-04-06T08:59:45;100493.16;;;35.21;50.89
23223;BME280;11780;13.904;100.620;2023-04-06T09:02:18;100482.66;;;35.14;50.77
23223;BME280;11780;13.904;100.620;2023-04-06T09:04:53;100483.75;;;35.26;50.39
23223;BME280;11780;13.904;100.620;2023-04-06T09:07:24;100485.97;;;35.36;50.17
23223;BME280;11780;13.904;100.620;2023-04-06T09:09:55;100490.09;;;35.42;49.64
23223;BME280;11780;13.904;100.620;2023-04-06T09:12:27;100490.34;;;35.37;49.78
23223;BME280;11780;13.904;100.620;2023-04-06T09:14:59;100490.28;;;35.33;50.20
23223;BME280;11780;13.904;100.620;2023-04-06T09:17:32;100490.53;;;35.44;50.16
23223;BME280;11780;13.904;100.620;2023-04-06T09:20:03;100490.34;;;35.53;49.89
23223;BME280;11780;13.904;100.620;2023-04-06T09:22:38;100495.38;;;35.47;50.40
23223;BME280;11780;13.904;100.620;2023-04-06T09:25:09;100499.78;;;35.48;49.98
23223;BME280;11780;13.904;100.620;2023-04-06T09:27:49;100493.50;;;35.51;49.87
23223;BME280;11780;13.904;100.620;2023-04-06T09:30:28;100485.41;;;35.62;49.34
23223;BME280;11780;13.904;100.620;2023-04-06T09:32:59;100480.69;;;35.66;49.04
23223;BME280;11780;13.904;100.620;2023-04-06T09:35:30;100491.03;;;35.66;48.98
23223;BME280;11780;13.904;100.620;2023-04-06T09:38:11;100481.34;;;35.60;48.86
23223;BME280;11780;13.904;100.620;2023-04-06T09:40:49;100483.25;;;35.56;49.06
23223;BME280;11780;13.904;100.620;2023-04-06T09:43:28;100486.78;;;35.53;49.25
23223;BME280;11780;13.904;100.620;2023-04-06T09:46:00;100488.31;;;35.50;49.30
23223;BME280;11780;13.904;100.620;2023-04-06T09:48:34;100494.47;;;35.43;49.57
23223;BME280;11780;13.904;100.620;2023-04-06T09:51:07;100491.69;;;35.43;49.45
23223;BME280;11780;13.904;100.620;2023-04-06T09:53:42;100486.13;;;35.43;48.53
23223;BME280;11780;13.904;100.620;2023-04-06T09:56:17;100493.59;;;35.39;48.55
23223;BME280;11780;13.904;100.620;2023-04-06T09:58:56;100492.88;;;35.42;48.12
23223;BME280;11780;13.904;100.620;2023-04-06T10:01:29;100492.75;;;35.39;48.22
23223;BME280;11780;13.904;100.620;2023-04-06T10:04:10;100494.31;;;35.36;48.19
23223;BME280;11780;13.904;100.620;2023-04-06T10:06:43;100491.63;;;35.24;48.38
23223;BME280;11780;13.904;100.620;2023-04-06T10:09:15;100500.06;;;35.27;48.51
23223;BME280;11780;13.904;100.620;2023-04-06T10:11:48;100501.13;;;35.22;48.21
23223;BME280;11780;13.904;100.620;2023-04-06T10:14:20;100499.16;;;35.23;48.20
23223;BME280;11780;13.904;100.620;2023-04-06T10:16:51;100492.81;;;35.22;47.97
23223;BME280;11780;13.904;100.620;2023-04-06T10:19:29;100493.97;;;35.21;48.13
23223;BME280;11780;13.904;100.620;2023-04-06T10:22:05;100499.53;;;35.21;48.04
23223;BME280;11780;13.904;100.620;2023-04-06T10:24:36;100500.69;;;35.20;47.94
23223;BME280;11780;13.904;100.620;2023-04-06T10:27:06;100497.47;;;35.18;47.91
23223;BME280;11780;13.904;100.620;2023-04-06T10:29:44;100496.22;;;35.16;47.88
23223;BME280;11780;13.904;100.620;2023-04-06T10:32:15;100496.22;;;35.16;48.05
23223;BME280;11780;13.904;100.620;2023-04-06T10:34:48;100490.13;;;35.10;48.00
23223;BME280;11780;13.904;100.620;2023-04-06T10:37:18;100486.00;;;35.04;47.79
23223;BME280;11780;13.904;100.620;2023-04-06T10:39:53;100480.50;;;35.08;46.72
23223;BME280;11780;13.904;100.620;2023-04-06T10:42:37;100485.38;;;35.11;45.81
23223;BME280;11780;13.904;100.620;2023-04-06T10:45:21;100491.19;;;35.05;46.39
23223;BME280;11780;13.904;100.620;2023-04-06T10:47:53;100504.03;;;35.10;46.19
23223;BME280;11780;13.904;100.620;2023-04-06T10:50:24;100504.03;;;35.10;46.58
23223;BME280;11780;13.904;100.620;2023-04-06T10:53:02;100512.63;;;35.05;46.39
23223;BME280;11780;13.904;100.620;2023-04-06T10:55:34;100515.66;;;35.00;46.49
23223;BME280;11780;13.904;100.620;2023-04-06T10:58:08;100507.78;;;35.02;46.53
23223;BME280;11780;13.904;100.620;2023-04-06T11:00:44;100520.97;;;35.05;46.29
23223;BME280;11780;13.904;100.620;2023-04-06T11:03:18;100508.41;;;34.95;46.52
23223;BME280;11780;13.904;100.620;2023-04-06T11:05:50;100506.44;;;34.96;46.71
23223;BME280;11780;13.904;100.620;2023-04-06T11:08:32;100510.09;;;35.00;46.42
23223;BME280;11780;13.904;100.620;2023-04-06T11:11:13;100524.28;;;34.95;45.99
23223;BME280;11780;13.904;100.620;2023-04-06T11:13:58;100524.63;;;34.93;45.68
23223;BME280;11780;13.904;100.620;2023-04-06T11:16:31;100530.53;;;34.91;45.62
23223;BME280;11780;13.904;100.620;2023-04-06T11:19:05;100535.25;;;34.91;45.22
23223;BME280;11780;13.904;100.620;2023-04-06T11:21:41;100542.34;;;34.88;45.31
23223;BME280;11780;13.904;100.620;2023-04-06T11:24:22;100540.72;;;34.87;45.53
23223;BME280;11780;13.904;100.620;2023-04-06T11:26:58;100536.69;;;34.85;45.38
23223;BME280;11780;13.904;100.620;2023-04-06T11:29:31;100544.34;;;34.88;45.19
23223;BME280;11780;13.904;100.620;2023-04-06T11:32:04;100552.66;;;34.88;45.45
23223;BME280;11780;13.904;100.620;2023-04-06T11:34:37;100555.78;;;34.86;45.70
23223;BME280;11780;13.904;100.620;2023-04-06T11:37:09;100559.47;;;34.90;46.09
23223;BME280;11780;13.904;100.620;2023-04-06T11:39:51;100550.94;;;34.83;46.26
23223;BME280;11780;13.904;100.620;2023-04-06T11:42:28;100561.50;;;34.78;46.46
23223;BME280;11780;13.904;100.620;2023-04-06T11:44:59;100568.06;;;34.85;46.38
23223;BME280;11780;13.904;100.620;2023-04-06T11:47:35;100573.91;;;34.80;46.53
23223;BME280;11780;13.904;100.620;2023-04-06T11:50:13;100576.69;;;34.80;46.76
23223;BME280;11780;13.904;100.620;2023-04-06T11:52:43;100578.63;;;34.80;46.95
23223;BME280;11780;13.904;100.620;2023-04-06T11:55:18;100574.00;;;34.84;47.04
23223;BME280;11780;13.904;100.620;2023-04-06T11:57:49;100574.22;;;34.79;47.41
23223;BME280;11780;13.904;100.620;2023-04-06T12:00:21;100580.94;;;34.78;47.97
23223;BME280;11780;13.904;100.620;2023-04-06T12:02:52;100576.22;;;34.78;48.44
23223;BME280;11780;13.904;100.620;2023-04-06T12:05:22;100582.94;;;34.77;48.51
23223;BME280;11780;13.904;100.620;2023-04-06T12:07:53;100583.41;;;34.79;48.62
23223;BME280;11780;13.904;100.620;2023-04-06T12:10:27;100593.84;;;34.70;49.51
23223;BME280;11780;13.904;100.620;2023-04-06T12:12:57;100602.44;;;34.65;50.70
23223;BME280;11780;13.904;100.620;2023-04-06T12:15:27;100605.94;;;34.61;51.10
23223;BME280;11780;13.904;100.620;2023-04-06T12:17:58;100608.50;;;34.54;51.60
23223;BME280;11780;13.904;100.620;2023-04-06T12:20:29;100605.38;;;34.56;52.03
23223;BME280;11780;13.904;100.620;2023-04-06T12:23:00;100608.75;;;34.49;52.74
23223;BME280;11780;13.904;100.620;2023-04-06T12:25:30;100617.19;;;34.53;53.02
23223;BME280;11780;13.904;100.620;2023-04-06T12:28:01;100617.09;;;34.49;53.67
23223;BME280;11780;13.904;100.620;2023-04-06T12:30:31;100617.31;;;34.44;54.12
23223;BME280;11780;13.904;100.620;2023-04-06T12:33:02;100623.66;;;34.44;54.29
23223;BME280;11780;13.904;100.620;2023-04-06T12:35:37;100626.13;;;34.46;54.24
23223;BME280;11780;13.904;100.620;2023-04-06T12:38:08;100637.91;;;34.43;54.62
23223;BME280;11780;13.904;100.620;2023-04-06T12:40:39;100642.41;;;34.35;54.88
23223;BME280;11780;13.904;100.620;2023-04-06T12:43:09;100635.72;;;34.36;55.15
23223;BME280;11780;13.904;100.620;2023-04-06T12:45:40;100645.09;;;34.31;54.93
23223;BME280;11780;13.904;100.620;2023-04-06T12:48:11;100655.06;;;34.33;55.10
23223;BME280;11780;13.904;100.620;2023-04-06T12:50:42;100658.28;;;34.22;55.17
23223;BME280;11780;13.904;100.620;2023-04-06T12:53:12;100664.41;;;34.28;55.10
23223;BME280;11780;13.904;100.620;2023-04-06T12:55:42;100659.91;;;34.23;55.66
23223;BME280;11780;13.904;100.620;2023-04-06T12:58:13;100662.69;;;34.23;55.65
23223;BME280;11780;13.904;100.620;2023-04-06T13:00:43;100666.75;;;34.13;56.09
23223;BME280;11780;13.904;100.620;2023-04-06T13:03:14;100671.00;;;34.23;56.31
23223;BME280;11780;13.904;100.620;2023-04-06T13:05:46;100672.41;;;34.29;56.09
23223;BME280;11780;13.904;100.620;2023-04-06T13:08:18;100681.31;;;34.10;56.28
23223;BME280;11780;13.904;100.620;2023-04-06T13:10:51;100671.13;;;34.27;56.45
23223;BME280;11780;13.904;100.620;2023-04-06T13:13:26;100677.81;;;34.38;56.29
23223;BME280;11780;13.904;100.620;2023-04-06T13:16:05;100686.03;;;34.22;56.83
23223;BME280;11780;13.904;100.620;2023-04-06T13:18:37;100693.22;;;34.11;56.81
23223;BME280;11780;13.904;100.620;2023-04-06T13:21:08;100694.50;;;34.01;57.27
23223;BME280;11780;13.904;100.620;2023-04-06T13:23:39;100701.09;;;34.21;56.89
23223;BME280;11780;13.904;100.620;2023-04-06T13:26:10;100705.50;;;34.10;57.36
23223;BME280;11780;13.904;100.620;2023-04-06T13:28:40;100714.06;;;34.17;57.58
23223;BME280;11780;13.904;100.620;2023-04-06T13:31:11;100707.81;;;34.08;58.05
23223;BME280;11780;13.904;100.620;2023-04-06T13:33:42;100716.13;;;34.08;58.20
23223;BME280;11780;13.904;100.620;2023-04-06T13:36:12;100712.88;;;34.06;58.52
23223;BME280;11780;13.904;100.620;2023-04-06T13:38:44;100713.72;;;34.06;58.85
23223;BME280;11780;13.904;100.620;2023-04-06T13:41:22;100727.34;;;34.11;58.80
23223;BME280;11780;13.904;100.620;2023-04-06T13:43:53;100729.53;;;33.93;59.43
23223;BME280;11780;13.904;100.620;2023-04-06T13:46:23;100738.31;;;33.95;59.22
23223;BME280;11780;13.904;100.620;2023-04-06T13:48:54;100738.56;;;34.15;59.02
23223;BME280;11780;13.904;100.620;2023-04-06T13:51:24;100743.09;;;34.20;58.78
23223;BME280;11780;13.904;100.620;2023-04-06T13:53:56;100744.13;;;34.15;58.99
23223;BME280;11780;13.904;100.620;2023-04-06T13:56:27;100748.50;;;34.04;59.22
23223;BME280;11780;13.904;100.620;2023-04-06T13:58:57;100750.38;;;33.99;59.31
23223;BME280;11780;13.904;100.620;2023-04-06T14:01:28;100760.63;;;33.99;59.41
23223;BME280;11780;13.904;100.620;2023-04-06T14:03:59;100757.06;;;33.98;59.30
23223;BME280;11780;13.904;100.620;2023-04-06T14:06:29;100766.34;;;34.15;59.43
23223;BME280;11780;13.904;100.620;2023-04-06T14:09:00;100759.38;;;34.21;59.31
23223;BME280;11780;13.904;100.620;2023-04-06T14:11:31;100768.88;;;34.33;59.35
23223;BME280;11780;13.904;100.620;2023-04-06T14:14:01;100766.22;;;34.36;59.26
23223;BME280;11780;13.904;100.620;2023-04-06T14:16:32;100759.84;;;34.36;59.24
23223;BME280;11780;13.904;100.620;2023-04-06T14:19:02;100774.06;;;34.34;59.37
23223;BME280;11780;13.904;100.620;2023-04-06T14:21:32;100778.81;;;34.34;59.42
23223;BME280;11780;13.904;100.620;2023-04-06T14:24:03;100782.03;;;34.36;59.40
23223;BME280;11780;13.904;100.620;2023-04-06T14:26:33;100780.69;;;34.42;59.47
23223;BME280;11780;13.904;100.620;2023-04-06T14:29:04;100793.16;;;34.36;59.51
23223;BME280;11780;13.904;100.620;2023-04-06T14:31:35;100796.06;;;34.39;59.40
23223;BME280;11780;13.904;100.620;2023-04-06T14:34:06;100802.13;;;34.41;59.32
23223;BME280;11780;13.904;100.620;2023-04-06T14:36:36;100802.63;;;34.35;59.42
23223;BME280;11780;13.904;100.620;2023-04-06T14:39:08;100823.97;;;34.43;59.26
23223;BME280;11780;13.904;100.620;2023-04-06T14:41:39;100822.00;;;34.43;59.42
23223;BME280;11780;13.904;100.620;2023-04-06T14:44:10;100819.28;;;34.35;59.42
23223;BME280;11780;13.904;100.620;2023-04-06T14:46:42;100809.69;;;34.32;59.47
23223;BME280;11780;13.904;100.620;2023-04-06T14:49:12;100817.69;;;34.34;59.25
23223;BME280;11780;13.904;100.620;2023-04-06T14:51:46;100817.56;;;34.30;59.31
23223;BME280;11780;13.904;100.620;2023-04-06T14:54:16;100813.63;;;34.31;59.73
23223;BME280;11780;13.904;100.620;2023-04-06T14:56:46;100823.00;;;34.26;59.51
23223;BME280;11780;13.904;100.620;2023-04-06T14:59:30;100828.41;;;34.10;59.82
23223;BME280;11780;13.904;100.620;2023-04-06T15:02:14;100832.59;;;34.04;60.03
23223;BME280;11780;13.904;100.620;2023-04-06T15:04:46;100839.16;;;33.99;60.10
23223;BME280;11780;13.904;100.620;2023-04-06T15:07:16;100835.94;;;33.97;59.70
23223;BME280;11780;13.904;100.620;2023-04-06T15:09:46;100843.41;;;33.97;59.71
23223;BME280;11780;13.904;100.620;2023-04-06T15:12:17;100842.94;;;33.95;60.01
23223;BME280;11780;13.904;100.620;2023-04-06T15:14:47;100844.94;;;33.94;59.91
23223;BME280;11780;13.904;100.620;2023-04-06T15:17:17;100845.28;;;33.93;60.15
23223;BME280;11780;13.904;100.620;2023-04-06T15:20:02;100853.25;;;33.94;60.08
23223;BME280;11780;13.904;100.620;2023-04-06T15:22:33;100848.06;;;33.93;60.00
23223;BME280;11780;13.904;100.620;2023-04-06T15:25:04;100847.22;;;33.92;60.10
23223;BME280;11780;13.904;100.620;2023-04-06T15:27:34;100850.00;;;33.92;60.16
23223;BME280;11780;13.904;100.620;2023-04-06T15:30:05;100854.41;;;33.93;60.20
23223;BME280;11780;13.904;100.620;2023-04-06T15:32:37;100853.59;;;33.93;60.44
23223;BME280;11780;13.904;100.620;2023-04-06T15:35:16;100857.53;;;33.92;60.35